createdAt,value
2023-04-13T00:00:36.703Z,8.67
2023-04-13T00:03:22.731Z,8.66
2023-04-13T00:06:11.032Z,8.62
2023-04-13T00:08:58.918Z,8.55
2023-04-13T00:11:47.062Z,8.54
2023-04-13T00:14:34.005Z,8.50
2023-04-13T00:17:19.986Z,8.46
2023-04-13T00:20:10.992Z,8.42
2023-04-13T00:22:57.156Z,8.35
2023-04-13T00:25:43.005Z,8.26
2023-04-13T00:28:30.158Z,8.19
2023-04-13T00:31:18.334Z,8.10
2023-04-13T00:34:04.556Z,8.07
2023-04-13T00:36:50.846Z,8.03
2023-04-13T00:39:36.899Z,7.94
2023-04-13T00:42:22.628Z,7.91
2023-04-13T00:45:09.597Z,7.83
2023-04-13T00:47:58.133Z,7.80
2023-04-13T00:50:45.230Z,7.76
2023-04-13T00:53:31.985Z,7.73
2023-04-13T00:56:19.216Z,7.69
2023-04-13T00:59:07.647Z,7.72
2023-04-13T01:01:57.019Z,7.67
2023-04-13T01:04:46.034Z,7.62
2023-04-13T01:07:55.516Z,7.55
2023-04-13T01:10:57.480Z,7.51
2023-04-13T01:14:02.171Z,7.35
2023-04-13T01:16:58.144Z,7.29
2023-04-13T01:19:53.958Z,7.21
2023-04-13T01:22:45.694Z,7.13
2023-04-13T01:25:50.933Z,6.98
2023-04-13T01:28:38.177Z,6.86
2023-04-13T01:31:24.857Z,6.79
2023-04-13T01:34:11.699Z,6.78
2023-04-13T01:36:57.401Z,6.75
2023-04-13T01:39:43.095Z,6.79
2023-04-13T01:42:43.176Z,6.79
2023-04-13T01:45:39.239Z,6.82
2023-04-13T01:48:35.573Z,6.83
2023-04-13T01:51:34.805Z,6.86
2023-04-13T01:54:25.842Z,6.88
2023-04-13T01:57:14.268Z,6.87
2023-04-13T02:00:00.358Z,6.91
2023-04-13T02:02:46.354Z,6.90
2023-04-13T02:05:37.014Z,6.89
2023-04-13T02:08:24.109Z,6.89
2023-04-13T02:11:12.666Z,6.84
2023-04-13T02:13:58.856Z,6.80
2023-04-13T02:16:44.897Z,6.77
2023-04-13T02:19:34.723Z,6.75
2023-04-13T02:22:22.372Z,6.72
2023-04-13T02:25:09.081Z,6.72
2023-04-13T02:27:54.803Z,6.72
2023-04-13T02:30:41.059Z,6.71
2023-04-13T02:33:32.926Z,6.72
2023-04-13T02:36:20.271Z,6.68
2023-04-13T02:39:13.863Z,6.69
2023-04-13T02:41:59.668Z,6.67
2023-04-13T02:44:50.211Z,6.61
2023-04-13T02:47:37.809Z,6.60
2023-04-13T02:50:23.980Z,6.57
2023-04-13T02:53:18.092Z,6.58
2023-04-13T02:56:20.698Z,6.56
2023-04-13T02:59:11.389Z,6.56
2023-04-13T03:01:58.977Z,6.53
2023-04-13T03:04:47.698Z,6.50
2023-04-13T03:07:36.332Z,6.46
2023-04-13T03:10:23.220Z,6.37
2023-04-13T03:13:09.857Z,6.32
2023-04-13T03:15:57.977Z,6.30
2023-04-13T03:18:45.854Z,6.26
2023-04-13T03:21:34.502Z,6.19
2023-04-13T03:24:32.685Z,6.11
2023-04-13T03:27:23.975Z,6.13
2023-04-13T03:30:12.972Z,6.08
2023-04-13T03:33:09.279Z,6.07
2023-04-13T03:35:57.640Z,6.08
2023-04-13T03:38:49.681Z,6.09
2023-04-13T03:41:36.438Z,6.07
2023-04-13T03:44:22.815Z,6.04
2023-04-13T03:47:10.086Z,5.95
2023-04-13T03:49:56.945Z,5.88
2023-04-13T03:52:44.137Z,5.85
2023-04-13T03:55:30.301Z,5.84
2023-04-13T03:58:23.090Z,5.85
2023-04-13T04:01:12.563Z,5.84
2023-04-13T04:04:03.911Z,5.85
2023-04-13T04:06:50.986Z,5.82
2023-04-13T04:09:36.934Z,5.84
2023-04-13T04:12:24.046Z,5.83
2023-04-13T04:15:10.504Z,5.78
2023-04-13T04:17:58.438Z,5.70
2023-04-13T04:20:44.639Z,5.66
2023-04-13T04:23:30.910Z,5.68
2023-04-13T04:26:25.762Z,5.67
2023-04-13T04:29:34.417Z,5.71
2023-04-13T04:32:29.417Z,5.71
2023-04-13T04:35:19.325Z,5.67
2023-04-13T04:38:11.191Z,5.74
2023-04-13T04:40:57.760Z,5.74
2023-04-13T04:43:46.186Z,5.73
2023-04-13T04:46:33.559Z,5.77
2023-04-13T04:49:24.137Z,5.79
2023-04-13T04:52:12.641Z,5.81
2023-04-13T04:54:59.768Z,5.83
2023-04-13T04:57:49.916Z,5.89
2023-04-13T05:00:38.375Z,5.94
2023-04-13T05:03:29.684Z,5.95
2023-04-13T05:06:32.910Z,5.99
2023-04-13T05:09:20.775Z,6.02
2023-04-13T05:12:10.659Z,6.02
2023-04-13T05:14:59.270Z,6.02
2023-04-13T05:17:47.014Z,6.08
2023-04-13T05:20:34.789Z,6.11
2023-04-13T05:23:25.402Z,6.13
2023-04-13T05:26:20.614Z,6.18
2023-04-13T05:29:08.189Z,6.21
2023-04-13T05:32:00.064Z,6.26
2023-04-13T05:34:47.649Z,6.31
2023-04-13T05:37:40.222Z,6.36
2023-04-13T05:40:33.718Z,6.43
2023-04-13T05:43:23.828Z,6.50
2023-04-13T05:46:12.464Z,6.56
2023-04-13T05:48:59.968Z,6.63
2023-04-13T05:51:46.378Z,6.69
2023-04-13T05:54:32.715Z,6.76
2023-04-13T05:57:21.050Z,6.80
2023-04-13T06:00:10.810Z,6.87
2023-04-13T06:03:04.574Z,6.87
2023-04-13T06:05:52.893Z,6.94
2023-04-13T06:08:40.063Z,7.00
2023-04-13T06:11:26.365Z,7.04
2023-04-13T06:14:12.219Z,7.11
2023-04-13T06:16:59.966Z,7.14
2023-04-13T06:19:46.044Z,7.19
2023-04-13T06:22:31.989Z,7.29
2023-04-13T06:25:18.294Z,7.36
2023-04-13T06:28:04.934Z,7.40
2023-04-13T06:30:54.962Z,7.48
2023-04-13T06:33:40.749Z,7.61
2023-04-13T06:36:27.127Z,7.63
2023-04-13T06:39:15.829Z,7.72
2023-04-13T06:42:07.833Z,7.78
2023-04-13T06:45:12.135Z,7.83
2023-04-13T06:48:01.962Z,7.92
2023-04-13T06:50:52.347Z,8.00
2023-04-13T06:53:39.379Z,8.08
2023-04-13T06:56:26.121Z,8.16
2023-04-13T06:59:12.892Z,8.23
2023-04-13T07:01:59.659Z,8.31
2023-04-13T07:04:45.926Z,8.38
2023-04-13T07:07:31.736Z,8.47
2023-04-13T07:10:17.713Z,8.52
2023-04-13T07:13:04.870Z,8.59
2023-04-13T07:15:52.192Z,8.69
2023-04-13T07:18:38.714Z,8.79
2023-04-13T07:21:24.558Z,8.91
2023-04-13T07:24:18.755Z,8.97
2023-04-13T07:27:06.710Z,9.10
2023-04-13T07:29:52.840Z,9.22
2023-04-13T07:32:41.873Z,9.34
2023-04-13T07:35:28.735Z,9.46
2023-04-13T07:38:17.453Z,9.56
2023-04-13T07:41:03.312Z,9.71
2023-04-13T07:43:52.236Z,9.84
2023-04-13T07:46:38.803Z,9.99
2023-04-13T07:49:24.965Z,10.14
2023-04-13T07:52:12.757Z,10.28
2023-04-13T07:55:02.297Z,10.46
2023-04-13T07:57:53.833Z,10.57
2023-04-13T08:00:39.883Z,10.74
2023-04-13T08:03:26.666Z,10.92
2023-04-13T08:06:12.694Z,11.07
2023-04-13T08:08:59.970Z,11.26
2023-04-13T08:11:46.379Z,11.41
2023-04-13T08:14:32.249Z,11.56
2023-04-13T08:17:18.576Z,11.69
2023-04-13T08:20:08.461Z,11.81
2023-04-13T08:22:55.237Z,12.00
2023-04-13T08:25:41.938Z,12.13
2023-04-13T08:28:29.050Z,12.29
2023-04-13T08:31:16.404Z,12.45
2023-04-13T08:34:10.953Z,12.61
2023-04-13T08:36:57.461Z,12.80
2023-04-13T08:39:48.356Z,12.93
2023-04-13T08:42:37.347Z,13.11
2023-04-13T08:45:23.863Z,13.28
2023-04-13T08:48:11.898Z,13.45
2023-04-13T08:51:00.498Z,13.60
2023-04-13T08:53:49.739Z,13.72
2023-04-13T08:56:46.267Z,13.85
2023-04-13T08:59:41.571Z,13.98
2023-04-13T09:02:34.833Z,14.10
2023-04-13T09:05:26.576Z,14.22
2023-04-13T09:08:17.108Z,14.31
2023-04-13T09:11:05.840Z,14.45
2023-04-13T09:13:52.390Z,14.55
2023-04-13T09:16:42.919Z,14.67
2023-04-13T09:19:36.807Z,14.78
2023-04-13T09:22:27.069Z,14.86
2023-04-13T09:25:27.436Z,14.99
2023-04-13T09:28:19.982Z,15.11
2023-04-13T09:31:06.553Z,15.24
2023-04-13T09:33:53.370Z,15.37
2023-04-13T09:36:52.903Z,15.48
2023-04-13T09:39:39.936Z,15.67
2023-04-13T09:42:27.172Z,15.79
2023-04-13T09:45:12.916Z,15.97
2023-04-13T09:48:02.494Z,16.10
2023-04-13T09:51:02.266Z,16.27
2023-04-13T09:53:49.746Z,16.41
2023-04-13T09:56:47.155Z,16.54
2023-04-13T09:59:34.314Z,16.64
2023-04-13T10:02:20.847Z,16.70
2023-04-13T10:05:09.645Z,16.73
2023-04-13T10:07:56.364Z,16.81
2023-04-13T10:10:42.533Z,16.94
2023-04-13T10:13:32.509Z,17.04
2023-04-13T10:16:43.476Z,17.19
2023-04-13T10:19:31.199Z,17.37
2023-04-13T10:22:17.817Z,17.51
2023-04-13T10:25:07.061Z,17.69
2023-04-13T10:28:00.761Z,17.84
2023-04-13T10:30:52.818Z,17.90
2023-04-13T10:33:49.739Z,18.02
2023-04-13T10:36:38.522Z,18.19
2023-04-13T10:39:28.320Z,18.44
2023-04-13T10:42:17.852Z,18.63
2023-04-13T10:45:19.126Z,18.70
2023-04-13T10:48:06.190Z,18.88
2023-04-13T10:50:59.442Z,18.90
2023-04-13T10:53:46.109Z,18.92
2023-04-13T10:56:31.917Z,19.04
2023-04-13T10:59:18.077Z,19.16
2023-04-13T11:02:12.119Z,19.28
2023-04-13T11:04:57.986Z,19.47
2023-04-13T11:07:45.613Z,19.79
2023-04-13T11:10:32.548Z,20.13
2023-04-13T11:13:18.454Z,20.52
2023-04-13T11:16:05.700Z,20.93
2023-04-13T11:19:03.581Z,21.40
2023-04-13T11:21:58.195Z,21.85
2023-04-13T11:24:47.791Z,22.31
2023-04-13T11:27:33.890Z,22.90
2023-04-13T11:30:22.400Z,23.42
2023-04-13T11:33:09.997Z,23.75
2023-04-13T11:36:01.236Z,24.06
2023-04-13T11:38:48.028Z,24.40
2023-04-13T11:41:39.647Z,24.67
2023-04-13T11:44:25.427Z,24.84
2023-04-13T11:47:13.360Z,24.93
2023-04-13T11:49:59.207Z,25.07
2023-04-13T11:52:49.600Z,25.20
2023-04-13T11:55:50.150Z,25.13
2023-04-13T11:58:40.621Z,24.95
2023-04-13T12:01:32.354Z,24.79
2023-04-13T12:04:21.690Z,24.54
2023-04-13T12:07:14.000Z,24.39
2023-04-13T12:10:05.557Z,24.41
2023-04-13T12:13:15.865Z,24.42
2023-04-13T12:16:13.316Z,24.38
2023-04-13T12:19:12.716Z,24.13
2023-04-13T12:22:06.585Z,23.98
2023-04-13T12:24:53.519Z,23.86
2023-04-13T12:27:44.130Z,23.94
2023-04-13T12:30:30.080Z,23.97
2023-04-13T12:33:16.671Z,23.92
2023-04-13T12:36:02.834Z,23.82
2023-04-13T12:38:48.773Z,23.64
2023-04-13T12:41:34.569Z,23.44
2023-04-13T12:44:20.864Z,23.26
2023-04-13T12:47:06.875Z,23.13
2023-04-13T12:49:52.871Z,23.05
2023-04-13T12:52:42.604Z,23.03
2023-04-13T12:55:30.665Z,23.04
2023-04-13T12:58:16.597Z,23.04
2023-04-13T13:01:03.081Z,23.02
2023-04-13T13:03:48.937Z,23.03
2023-04-13T13:06:35.502Z,23.11
2023-04-13T13:09:21.228Z,23.13
2023-04-13T13:12:07.226Z,23.14
2023-04-13T13:14:53.268Z,23.11
2023-04-13T13:17:42.682Z,23.10
2023-04-13T13:20:28.958Z,23.05
2023-04-13T13:23:14.989Z,23.02
2023-04-13T13:26:21.928Z,22.98
2023-04-13T13:29:07.961Z,22.98
2023-04-13T13:31:53.798Z,23.07
2023-04-13T13:34:39.946Z,23.11
2023-04-13T13:37:26.501Z,23.09
2023-04-13T13:40:15.816Z,23.04
2023-04-13T13:43:04.356Z,22.96
2023-04-13T13:45:50.768Z,22.88
2023-04-13T13:48:37.475Z,23.03
2023-04-13T13:51:42.978Z,23.37
2023-04-13T13:54:32.265Z,23.82
2023-04-13T13:57:34.375Z,24.35
2023-04-13T14:00:21.422Z,24.90
2023-04-13T14:03:07.803Z,25.41
2023-04-13T14:05:54.159Z,25.92
2023-04-13T14:08:39.873Z,26.42
2023-04-13T14:11:26.404Z,26.83
2023-04-13T14:14:21.141Z,27.22
2023-04-13T14:17:10.244Z,27.64
2023-04-13T14:19:56.138Z,28.02
2023-04-13T14:22:43.345Z,28.28
2023-04-13T14:25:29.528Z,28.35
2023-04-13T14:28:15.588Z,28.36
2023-04-13T14:31:01.729Z,28.36
2023-04-13T14:33:47.753Z,28.50
2023-04-13T14:36:33.764Z,28.52
2023-04-13T14:39:26.039Z,28.39
2023-04-13T14:42:13.626Z,28.18
2023-04-13T14:44:59.445Z,27.92
2023-04-13T14:47:45.619Z,27.81
2023-04-13T14:50:32.724Z,27.83
2023-04-13T14:54:04.017Z,28.01
2023-04-13T14:56:49.873Z,27.87
2023-04-13T14:59:36.082Z,27.58
2023-04-13T15:03:29.200Z,27.04
2023-04-13T15:15:33.973Z,24.25
2023-04-13T15:18:29.309Z,23.69
2023-04-13T15:21:15.668Z,23.37
2023-04-13T15:24:01.825Z,23.14
2023-04-13T15:27:25.877Z,22.85
2023-04-13T15:30:14.099Z,22.61
2023-04-13T15:33:04.432Z,22.43
2023-04-13T15:35:52.636Z,22.39
2023-04-13T15:38:38.621Z,22.26
2023-04-13T15:41:27.275Z,22.15
2023-04-13T15:44:13.171Z,22.17
2023-04-13T15:47:02.381Z,22.03
2023-04-13T15:49:48.876Z,21.96
2023-04-13T15:52:36.524Z,21.86
2023-04-13T15:55:22.607Z,21.70
2023-04-13T15:58:12.821Z,21.56
2023-04-13T16:01:06.325Z,21.40
2023-04-13T16:04:11.928Z,21.30
2023-04-13T16:07:13.763Z,21.26
2023-04-13T16:10:01.752Z,21.25
2023-04-13T16:12:50.242Z,21.22
2023-04-13T16:24:25.286Z,20.96
2023-04-13T16:27:11.046Z,20.85
2023-04-13T16:30:05.277Z,20.75
2023-04-13T16:32:52.805Z,20.63
2023-04-13T16:35:40.386Z,20.55
2023-04-13T16:38:26.692Z,20.44
2023-04-13T16:41:13.643Z,20.38
2023-04-13T16:44:04.110Z,20.28
2023-04-13T16:46:56.445Z,20.22
2023-04-13T16:49:48.220Z,20.15
2023-04-13T16:52:50.389Z,20.11
2023-04-13T16:55:53.100Z,20.03
2023-04-13T16:58:41.084Z,19.93
2023-04-13T17:01:31.307Z,19.87
2023-04-13T17:04:18.736Z,19.81
2023-04-13T17:07:05.449Z,19.67
2023-04-13T17:09:51.344Z,19.55
2023-04-13T17:12:37.482Z,19.48
2023-04-13T17:15:23.629Z,19.40
2023-04-13T17:18:10.200Z,19.31
2023-04-13T17:20:56.679Z,19.22
2023-04-13T17:23:43.580Z,19.10
2023-04-13T17:26:29.935Z,19.00
2023-04-13T17:29:17.739Z,18.94
2023-04-13T17:32:07.517Z,18.82
2023-04-13T17:34:54.854Z,18.75
2023-04-13T17:37:41.076Z,18.64
2023-04-13T17:40:28.213Z,18.62
2023-04-13T17:43:18.194Z,18.58
2023-04-13T17:46:04.556Z,18.54
2023-04-13T17:48:50.377Z,18.46
2023-04-13T17:51:36.153Z,18.44
2023-04-13T17:54:22.449Z,18.41
2023-04-13T17:57:10.670Z,18.36
2023-04-13T17:59:57.895Z,18.30
2023-04-13T18:02:44.127Z,18.27
2023-04-13T18:05:30.356Z,18.26
2023-04-13T18:08:16.063Z,18.19
2023-04-13T18:11:02.527Z,18.14
2023-04-13T18:13:48.267Z,18.06
2023-04-13T18:16:40.061Z,17.99
2023-04-13T18:19:27.359Z,17.99
2023-04-13T18:22:15.105Z,17.99
2023-04-13T18:25:02.026Z,17.96
2023-04-13T18:27:50.183Z,17.93
2023-04-13T18:30:37.589Z,17.93
2023-04-13T18:33:24.172Z,17.85
2023-04-13T18:36:10.518Z,17.85
2023-04-13T18:38:56.689Z,17.86
2023-04-13T18:41:42.747Z,17.79
2023-04-13T18:44:28.717Z,17.81
2023-04-13T18:47:15.036Z,17.78
2023-04-13T18:50:01.557Z,17.74
2023-04-13T18:52:48.426Z,17.69
2023-04-13T18:55:35.125Z,17.61
2023-04-13T18:58:21.602Z,17.54
2023-04-13T19:01:17.860Z,17.53
2023-04-13T19:04:04.344Z,17.46
2023-04-13T19:06:50.575Z,17.39
2023-04-13T19:09:37.458Z,17.34
2023-04-13T19:12:23.604Z,17.26
2023-04-13T19:15:10.139Z,17.20
2023-04-13T19:17:56.955Z,17.15
2023-04-13T19:20:43.164Z,17.13
2023-04-13T19:23:29.372Z,17.11
2023-04-13T19:26:15.987Z,17.06
2023-04-13T19:29:04.047Z,17.06
2023-04-13T19:31:50.271Z,17.07
2023-04-13T19:34:36.508Z,17.06
2023-04-13T19:37:22.718Z,17.04
2023-04-13T19:40:10.007Z,17.03
2023-04-13T19:42:56.088Z,17.01
2023-04-13T19:45:42.614Z,17.04
2023-04-13T19:48:28.335Z,17.01
2023-04-13T19:51:14.360Z,17.00
2023-04-13T19:54:02.736Z,17.01
2023-04-13T19:56:49.381Z,16.98
2023-04-13T19:59:40.459Z,16.96
2023-04-13T20:02:28.714Z,16.97
2023-04-13T20:05:15.506Z,16.93
2023-04-13T20:08:01.600Z,16.95
2023-04-13T20:10:47.939Z,16.90
2023-04-13T20:13:34.105Z,16.86
2023-04-13T20:16:20.260Z,16.85
2023-04-13T20:19:07.088Z,16.82
2023-04-13T20:21:54.355Z,16.73
2023-04-13T20:24:40.590Z,16.71
2023-04-13T20:27:27.376Z,16.62
2023-04-13T20:30:13.681Z,16.59
2023-04-13T20:32:59.924Z,16.55
2023-04-13T20:35:45.898Z,16.54
2023-04-13T20:38:31.910Z,16.50
2023-04-13T20:41:19.320Z,16.50
2023-04-13T20:44:05.520Z,16.49
2023-04-13T20:46:54.945Z,16.49
2023-04-13T20:49:47.028Z,16.46
2023-04-13T20:52:33.040Z,16.45
2023-04-13T20:55:22.120Z,16.41
2023-04-13T20:58:08.325Z,16.38
2023-04-13T21:00:54.752Z,16.33
2023-04-13T21:03:40.865Z,16.28
2023-04-13T21:06:30.019Z,16.28
2023-04-13T21:09:16.143Z,16.28
2023-04-13T21:12:02.414Z,16.27
2023-04-13T21:14:48.132Z,16.21
2023-04-13T21:17:34.726Z,16.23
2023-04-13T21:20:21.071Z,16.18
2023-04-13T21:23:06.939Z,16.14
2023-04-13T21:25:52.834Z,16.17
2023-04-13T21:28:38.759Z,16.17
2023-04-13T21:31:24.409Z,16.16
2023-04-13T21:34:10.256Z,16.13
2023-04-13T21:36:56.151Z,16.12
2023-04-13T21:39:42.091Z,16.06
2023-04-13T21:42:33.028Z,16.06
2023-04-13T21:45:19.304Z,16.03
2023-04-13T21:48:05.812Z,15.98
2023-04-13T21:50:52.787Z,15.97
2023-04-13T21:53:39.079Z,15.95
2023-04-13T21:56:24.788Z,15.88
2023-04-13T21:59:10.671Z,15.86
2023-04-13T22:01:56.880Z,15.75
2023-04-13T22:04:42.770Z,15.76
2023-04-13T22:07:41.681Z,15.68
2023-04-13T22:10:35.083Z,15.73
2023-04-13T22:13:22.434Z,15.72
2023-04-13T22:16:10.929Z,15.70
2023-04-13T22:18:58.890Z,15.69
2023-04-13T22:21:49.760Z,15.66
2023-04-13T22:24:37.597Z,15.61
2023-04-13T22:27:25.317Z,15.59
2023-04-13T22:30:14.667Z,15.52
2023-04-13T22:33:02.850Z,15.49
2023-04-13T22:35:53.197Z,15.49
2023-04-13T22:38:41.043Z,15.46
2023-04-13T22:41:28.080Z,15.42
2023-04-13T22:44:13.757Z,15.40
2023-04-13T22:47:00.524Z,15.39
2023-04-13T22:49:46.325Z,15.35
2023-04-13T22:52:31.966Z,15.32
2023-04-13T22:55:18.213Z,15.27
2023-04-13T22:58:03.990Z,15.24
2023-04-13T23:00:50.867Z,15.22
2023-04-13T23:03:37.085Z,15.20
2023-04-13T23:06:25.317Z,15.12
2023-04-13T23:09:11.383Z,15.12
2023-04-13T23:12:03.072Z,15.08
2023-04-13T23:14:48.736Z,15.09
2023-04-13T23:17:34.604Z,15.08
2023-04-13T23:20:21.352Z,15.10
2023-04-13T23:23:11.643Z,15.07
2023-04-13T23:25:57.534Z,15.09
2023-04-13T23:28:43.616Z,15.09
2023-04-13T23:31:29.764Z,15.07
2023-04-13T23:34:15.449Z,15.09
2023-04-13T23:37:01.421Z,15.07
2023-04-13T23:39:47.470Z,15.02
2023-04-13T23:42:35.918Z,15.04
2023-04-13T23:45:22.683Z,15.02
2023-04-13T23:48:09.500Z,14.98
2023-04-13T23:50:55.604Z,14.99
2023-04-13T23:53:41.979Z,14.94
2023-04-13T23:56:28.353Z,14.96
2023-04-13T23:59:14.039Z,14.91
